Terminal Aerodrome Forecast
Issued by NWS Tampa Bay Area, FL

Home | Current Version | Previous Version | Text Only | Print | Product List | Glossary On
Versions: 1 2 3 4 5 6 7 8 9 10 11 12 13 14 15 16 17 18 19 20 21 22 23 24
087
FTUS42 KTBW 241122
TAFTPA
TAF
KTPA 241122Z 2412/2512 VRB03KT P6SM SKC
     FM241400 14005KT P6SM FEW030 FEW300
     FM241800 25006KT P6SM SCT040 SCT300
     FM242200 30006KT P6SM SCT050 SCT300
     FM250100 VRB05KT P6SM SCT050 SCT250=

USA.gov is the U.S. government's official web portal to all federal, state and local government web resources and services.